^^
Saratoga-Weather Station Historical Data
Daily Summary for March 16, 2021 Units:  Metric    English   Both
Daily Weekly Monthly Yearly Custom
  High: Low: Average:
Temperature: -3.3 °C -7.9 °C -6.1 °C
Dew Point: -4 °C -8.7 °C -6.9 °C
Humidity: 95% 92% 94%
Wind Speed: 0km/h 0km/h 0km/h
Wind Gust: 0km/h - -
Wind- -
Pressure: 1029.5 hPa 1027.1 hPa -
Precipitation: 0.0 mm    
Historical Graphs
 
 
Tabular Data for March 16, 2021
Time Temperature Dew Point Pressure Wind Wind Speed Wind Gust Humidity Rainfall Rate (Hourly) solar
00:03 -3.3 °C -4 °C 1029.5 hPa Calm     95% 0.0 mm 0 W/m2
00:08 -3.4 °C -4.1 °C 1029.5 hPa Calm     95% 0.0 mm 0 W/m2
00:13 -3.6 °C -4.4 °C 1029.5 hPa Calm     94% 0.0 mm 0 W/m2
00:18 -3.8 °C -4.6 °C 1029.5 hPa Calm     94% 0.0 mm 0 W/m2
00:23 -3.9 °C -4.7 °C 1029.5 hPa Calm     94% 0.0 mm 0 W/m2
00:28 -4.1 °C -4.9 °C 1029.5 hPa Calm     94% 0.0 mm 0 W/m2
00:33 -4.2 °C -5 °C 1029.5 hPa Calm     94% 0.0 mm 0 W/m2
00:38 -4.3 °C -5.1 °C 1029.5 hPa Calm     94% 0.0 mm 0 W/m2
00:44 -4.5 °C -5.3 °C 1029.1 hPa Calm     94% 0.0 mm 0 W/m2
00:49 -4.7 °C -5.5 °C 1029.1 hPa Calm     94% 0.0 mm 0 W/m2
00:54 -4.8 °C -5.6 °C 1029.1 hPa Calm     94% 0.0 mm 0 W/m2
00:59 -4.9 °C -5.7 °C 1029.1 hPa Calm     94% 0.0 mm 0 W/m2
01:04 -5.1 °C -5.9 °C 1029.1 hPa Calm     94% 0.0 mm 0 W/m2
01:09 -5.1 °C -5.9 °C 1029.1 hPa Calm     94% 0.0 mm 0 W/m2
01:14 -5.2 °C -6 °C 1029.1 hPa Calm     94% 0.0 mm 0 W/m2
01:19 -5.2 °C -6 °C 1029.1 hPa Calm     94% 0.0 mm 0 W/m2
01:24 -5.3 °C -6.1 °C 1029.1 hPa Calm     94% 0.0 mm 0 W/m2
01:29 -5.3 °C -6.1 °C 1029.1 hPa Calm     94% 0.0 mm 0 W/m2
01:34 -5.4 °C -6.1 °C 1029.1 hPa Calm     95% 0.0 mm 0 W/m2
01:39 -5.5 °C -6.3 °C 1029.5 hPa Calm     94% 0.0 mm 0 W/m2
01:44 -5.6 °C -6.4 °C 1029.5 hPa Calm     94% 0.0 mm 0 W/m2
01:49 -5.6 °C -6.4 °C 1029.5 hPa Calm     94% 0.0 mm 0 W/m2
01:54 -5.6 °C -6.3 °C 1029.1 hPa Calm     95% 0.0 mm 0 W/m2
01:59 -5.7 °C -6.5 °C 1029.5 hPa Calm     94% 0.0 mm 0 W/m2
02:04 -5.8 °C -6.6 °C 1029.1 hPa Calm     94% 0.0 mm 0 W/m2
02:09 -5.8 °C -6.6 °C 1029.5 hPa Calm     94% 0.0 mm 0 W/m2
02:14 -5.9 °C -6.7 °C 1029.5 hPa Calm     94% 0.0 mm 0 W/m2
02:19 -5.9 °C -6.7 °C 1029.1 hPa Calm     94% 0.0 mm 0 W/m2
02:24 -5.9 °C -6.6 °C 1029.1 hPa Calm     95% 0.0 mm 0 W/m2
02:29 -6 °C -6.7 °C 1029.1 hPa Calm     95% 0.0 mm 0 W/m2
02:34 -6.1 °C -6.9 °C 1029.1 hPa Calm     94% 0.0 mm 0 W/m2
02:39 -6.1 °C -6.9 °C 1029.1 hPa Calm     94% 0.0 mm 0 W/m2
02:44 -6.2 °C -7 °C 1029.5 hPa Calm     94% 0.0 mm 0 W/m2
02:49 -6.3 °C -7.1 °C 1029.5 hPa Calm     94% 0.0 mm 0 W/m2
02:54 -6.3 °C -7.1 °C 1029.5 hPa Calm     94% 0.0 mm 0 W/m2
02:59 -6.3 °C -7.1 °C 1029.5 hPa Calm     94% 0.0 mm 0 W/m2
03:04 -6.3 °C -7.1 °C 1029.5 hPa Calm     94% 0.0 mm 0 W/m2
03:09 -6.3 °C -7 °C 1029.5 hPa Calm     95% 0.0 mm 0 W/m2
03:14 -6.4 °C -7.2 °C 1029.5 hPa Calm     94% 0.0 mm 0 W/m2
03:19 -6.5 °C -7.3 °C 1029.1 hPa Calm     94% 0.0 mm 0 W/m2
03:24 -6.6 °C -7.4 °C 1029.1 hPa Calm     94% 0.0 mm 0 W/m2
03:29 -6.6 °C -7.4 °C 1029.5 hPa Calm     94% 0.0 mm 0 W/m2
03:34 -6.6 °C -7.3 °C 1029.1 hPa Calm     95% 0.0 mm 0 W/m2
03:39 -6.6 °C -7.3 °C 1029.1 hPa Calm     95% 0.0 mm 0 W/m2
03:44 -6.7 °C -7.5 °C 1029.1 hPa Calm     94% 0.0 mm 0 W/m2
03:49 -6.8 °C -7.6 °C 1029.1 hPa Calm     94% 0.0 mm 0 W/m2
03:54 -6.8 °C -7.6 °C 1029.1 hPa Calm     94% 0.0 mm 0 W/m2
03:59 -6.8 °C -7.6 °C 1029.1 hPa Calm     94% 0.0 mm 0 W/m2
04:04 -6.8 °C -7.6 °C 1029.1 hPa Calm     94% 0.0 mm 0 W/m2
04:09 -6.9 °C -7.7 °C 1029.1 hPa Calm     94% 0.0 mm 0 W/m2
04:14 -6.9 °C -7.7 °C 1029.1 hPa Calm     94% 0.0 mm 0 W/m2
04:19 -6.9 °C -7.7 °C 1029.1 hPa Calm     94% 0.0 mm 0 W/m2
04:24 -7 °C -7.8 °C 1029.1 hPa Calm     94% 0.0 mm 0 W/m2
04:29 -7 °C -7.8 °C 1029.1 hPa Calm     94% 0.0 mm 0 W/m2
04:34 -7.1 °C -7.9 °C 1029.1 hPa Calm     94% 0.0 mm 0 W/m2
04:39 -7.1 °C -7.9 °C 1029.1 hPa Calm     94% 0.0 mm 0 W/m2
04:44 -7.1 °C -7.9 °C 1029.1 hPa Calm     94% 0.0 mm 0 W/m2
04:49 -7.2 °C -8 °C 1029.1 hPa Calm     94% 0.0 mm 0 W/m2
04:54 -7.3 °C -8.1 °C 1029.1 hPa Calm     94% 0.0 mm 0 W/m2
04:59 -7.3 °C -8.1 °C 1029.1 hPa Calm     94% 0.0 mm 0 W/m2
05:04 -7.4 °C -8.2 °C 1029.1 hPa Calm     94% 0.0 mm 0 W/m2
05:14 -7.5 °C -8.3 °C 1029.5 hPa Calm     94% 0.0 mm 0 W/m2
05:19 -7.5 °C -8.3 °C 1029.1 hPa Calm     94% 0.0 mm 0 W/m2
05:24 -7.5 °C -8.3 °C 1029.1 hPa Calm     94% 0.0 mm 0 W/m2
05:29 -7.5 °C -8.3 °C 1029.1 hPa Calm     94% 0.0 mm 0 W/m2
05:34 -7.5 °C -8.3 °C 1029.1 hPa Calm     94% 0.0 mm 0 W/m2
05:40 -7.5 °C -8.3 °C 1029.1 hPa Calm     94% 0.0 mm 0 W/m2
05:45 -7.4 °C -8.1 °C 1029.1 hPa Calm     95% 0.0 mm 0 W/m2
05:50 -7.4 °C -8.1 °C 1029.1 hPa Calm     95% 0.0 mm 0 W/m2
05:55 -7.4 °C -8.2 °C 1029.1 hPa Calm     94% 0.0 mm 0 W/m2
06:00 -7.4 °C -8.2 °C 1029.1 hPa Calm     94% 0.0 mm 0 W/m2
06:05 -7.5 °C -8.3 °C 1029.1 hPa Calm     94% 0.0 mm 0 W/m2
06:10 -7.6 °C -8.4 °C 1029.1 hPa Calm     94% 0.0 mm 0 W/m2
06:15 -7.7 °C -8.5 °C 1028.8 hPa Calm     94% 0.0 mm 0 W/m2
06:20 -7.7 °C -8.5 °C 1028.8 hPa Calm     94% 0.0 mm 0 W/m2
06:25 -7.8 °C -8.6 °C 1028.8 hPa Calm     94% 0.0 mm 0 W/m2
06:35 -7.9 °C -8.7 °C 1028.8 hPa Calm     94% 0.0 mm 0 W/m2
06:40 -7.9 °C -8.7 °C 1028.8 hPa Calm     94% 0.0 mm 0 W/m2
06:45 -7.9 °C -8.7 °C 1028.8 hPa Calm     94% 0.0 mm 0 W/m2
06:50 -7.8 °C -8.6 °C 1028.8 hPa Calm     94% 0.0 mm 0 W/m2
06:55 -7.7 °C -8.4 °C 1028.8 hPa Calm     95% 0.0 mm 0 W/m2
07:00 -7.6 °C -8.3 °C 1028.8 hPa Calm     95% 0.0 mm 0 W/m2
07:05 -7.6 °C -8.4 °C 1028.8 hPa Calm     94% 0.0 mm 0 W/m2
07:10 -7.6 °C -8.4 °C 1028.8 hPa Calm     94% 0.0 mm 0 W/m2
07:15 -7.4 °C -8.1 °C 1028.8 hPa Calm     95% 0.0 mm 0 W/m2
07:20 -7.3 °C -8 °C 1028.8 hPa Calm     95% 0.0 mm 0 W/m2
07:25 -7.3 °C -8 °C 1028.8 hPa Calm     95% 0.0 mm 0 W/m2
07:30 -7.2 °C -7.9 °C 1028.5 hPa Calm     95% 0.0 mm 0 W/m2
07:35 -7.1 °C -7.8 °C 1028.5 hPa Calm     95% 0.0 mm 0 W/m2
07:40 -7 °C -7.7 °C 1028.5 hPa Calm     95% 0.0 mm 0 W/m2
07:45 -6.9 °C -7.6 °C 1028.5 hPa Calm     95% 0.0 mm 0 W/m2
07:50 -6.8 °C -7.5 °C 1028.5 hPa Calm     95% 0.0 mm 0 W/m2
07:55 -6.7 °C -7.4 °C 1028.5 hPa Calm     95% 0.0 mm 0 W/m2
08:00 -6.7 °C -7.4 °C 1028.5 hPa Calm     95% 0.0 mm 0 W/m2
08:05 -6.6 °C -7.3 °C 1028.5 hPa Calm     95% 0.0 mm 0 W/m2
08:10 -6.6 °C -7.3 °C 1028.5 hPa Calm     95% 0.0 mm 0 W/m2
08:15 -6.6 °C -7.3 °C 1028.5 hPa Calm     95% 0.0 mm 0 W/m2
08:20 -6.6 °C -7.3 °C 1028.5 hPa Calm     95% 0.0 mm 0 W/m2
08:30 -6.6 °C -7.3 °C 1028.5 hPa Calm     95% 0.0 mm 0 W/m2
08:35 -6.5 °C -7.2 °C 1028.5 hPa Calm     95% 0.0 mm 0 W/m2
08:40 -6.5 °C -7.2 °C 1028.5 hPa Calm     95% 0.0 mm 0 W/m2
08:45 -6.4 °C -7.1 °C 1028.5 hPa Calm     95% 0.0 mm 0 W/m2
08:50 -6.4 °C -7.1 °C 1028.5 hPa Calm     95% 0.0 mm 0 W/m2
08:55 -6.3 °C -7 °C 1028.5 hPa Calm     95% 0.0 mm 0 W/m2
09:00 -6.3 °C -7 °C 1028.5 hPa Calm     95% 0.0 mm 0 W/m2
09:05 -6.3 °C -7 °C 1028.5 hPa Calm     95% 0.0 mm 5 W/m2
09:10 -6.2 °C -6.9 °C 1028.5 hPa Calm     95% 0.0 mm 5 W/m2
09:15 -6.2 °C -6.9 °C 1028.1 hPa Calm     95% 0.0 mm 5 W/m2
09:20 -6.2 °C -6.9 °C 1028.1 hPa Calm     95% 0.0 mm 5 W/m2
09:25 -6.2 °C -6.9 °C 1028.1 hPa Calm     95% 0.0 mm 5 W/m2
09:30 -6.1 °C -6.8 °C 1028.1 hPa Calm     95% 0.0 mm 5 W/m2
09:35 -6.1 °C -6.8 °C 1028.1 hPa Calm     95% 0.0 mm 7 W/m2
09:40 -6 °C -6.7 °C 1028.1 hPa Calm     95% 0.0 mm 7 W/m2
09:45 -5.9 °C -6.6 °C 1028.1 hPa Calm     95% 0.0 mm 11 W/m2
09:51 -5.8 °C -6.5 °C 1028.1 hPa Calm     95% 0.0 mm 18 W/m2
09:56 -5.7 °C -6.4 °C 1028.1 hPa Calm     95% 0.0 mm 19 W/m2
10:01 -5.6 °C -6.3 °C 1028.1 hPa Calm     95% 0.0 mm 19 W/m2
10:06 -5.6 °C -6.3 °C 1027.8 hPa Calm     95% 0.0 mm 19 W/m2
10:11 -5.4 °C -6.1 °C 1027.8 hPa Calm     95% 0.0 mm 23 W/m2
10:16 -5.3 °C -6.1 °C 1027.8 hPa Calm     94% 0.0 mm 25 W/m2
10:21 -5.3 °C -6.1 °C 1027.8 hPa Calm     94% 0.0 mm 26 W/m2
10:26 -5.2 °C -6 °C 1027.8 hPa Calm     94% 0.0 mm 23 W/m2
10:31 -5.1 °C -5.8 °C 1027.8 hPa Calm     95% 0.0 mm 21 W/m2
10:36 -5.1 °C -5.9 °C 1027.8 hPa Calm     94% 0.0 mm 21 W/m2
10:41 -5.1 °C -5.9 °C 1027.8 hPa Calm     94% 0.0 mm 21 W/m2
10:46 -5.1 °C -5.9 °C 1027.8 hPa Calm     94% 0.0 mm 21 W/m2
10:51 -5.1 °C -5.9 °C 1027.8 hPa Calm     94% 0.0 mm 21 W/m2
10:56 -5.1 °C -5.9 °C 1027.8 hPa Calm     94% 0.0 mm 21 W/m2
11:01 -5.1 °C -5.9 °C 1027.8 hPa Calm     94% 0.0 mm 21 W/m2
11:06 -5 °C -5.8 °C 1027.8 hPa Calm     94% 0.0 mm 23 W/m2
11:11 -4.9 °C -5.7 °C 1027.8 hPa Calm     94% 0.0 mm 25 W/m2
11:16 -4.8 °C -5.6 °C 1027.8 hPa Calm     94% 0.0 mm 25 W/m2
11:21 -4.7 °C -5.5 °C 1027.8 hPa Calm     94% 0.0 mm 25 W/m2
11:26 -4.6 °C -5.4 °C 1027.8 hPa Calm     94% 0.0 mm 26 W/m2
11:31 -4.5 °C -5.3 °C 1027.8 hPa Calm     94% 0.0 mm 26 W/m2
11:36 -4.5 °C -5.3 °C 1027.4 hPa Calm     94% 0.0 mm 26 W/m2
11:41 -4.5 °C -5.5 °C 1027.4 hPa Calm     93% 0.0 mm 26 W/m2
11:46 -4.5 °C -5.5 °C 1027.4 hPa Calm     93% 0.0 mm 25 W/m2
11:51 -4.5 °C -5.5 °C 1027.4 hPa Calm     93% 0.0 mm 26 W/m2
11:56 -4.6 °C -5.6 °C 1027.4 hPa Calm     93% 0.0 mm 26 W/m2
12:01 -4.7 °C -5.7 °C 1027.4 hPa Calm     93% 0.0 mm 26 W/m2
12:06 -4.7 °C -5.7 °C 1027.4 hPa Calm     93% 0.0 mm 26 W/m2
12:11 -4.6 °C -5.6 °C 1027.4 hPa Calm     93% 0.0 mm 26 W/m2
12:16 -4.6 °C -5.6 °C 1027.1 hPa Calm     93% 0.0 mm 26 W/m2
12:21 -4.5 °C -5.6 °C 1027.1 hPa Calm     92% 0.0 mm 26 W/m2
Juneau County Weather
Compliments of Weather Underground - 2 mb